sensor_id;sensor_type;location;lat;lon;timestamp;temperature;humidity
15359;DHT22;7779;49.596;11.070;2023-03-31T00:01:36;10.30;73.00
15359;DHT22;7779;49.596;11.070;2023-03-31T00:04:07;10.30;73.30
15359;DHT22;7779;49.596;11.070;2023-03-31T00:06:37;10.30;73.60
15359;DHT22;7779;49.596;11.070;2023-03-31T00:09:11;10.30;74.10
15359;DHT22;7779;49.596;11.070;2023-03-31T00:11:49;10.30;74.30
15359;DHT22;7779;49.596;11.070;2023-03-31T00:14:17;10.40;74.00
15359;DHT22;7779;49.596;11.070;2023-03-31T00:16:44;10.30;74.10
15359;DHT22;7779;49.596;11.070;2023-03-31T00:19:12;10.40;74.90
15359;DHT22;7779;49.596;11.070;2023-03-31T00:21:48;10.40;74.30
15359;DHT22;7779;49.596;11.070;2023-03-31T00:24:16;10.50;74.30
15359;DHT22;7779;49.596;11.070;2023-03-31T00:26:43;10.50;74.30
15359;DHT22;7779;49.596;11.070;2023-03-31T00:29:12;10.50;74.30
15359;DHT22;7779;49.596;11.070;2023-03-31T00:31:38;10.50;74.30
15359;DHT22;7779;49.596;11.070;2023-03-31T00:34:04;10.60;74.30
15359;DHT22;7779;49.596;11.070;2023-03-31T00:36:32;10.60;74.30
15359;DHT22;7779;49.596;11.070;2023-03-31T00:39:02;10.60;74.30
15359;DHT22;7779;49.596;11.070;2023-03-31T00:41:33;10.60;74.20
15359;DHT22;7779;49.596;11.070;2023-03-31T00:44:13;10.60;74.10
15359;DHT22;7779;49.596;11.070;2023-03-31T00:47:03;10.60;74.80
15359;DHT22;7779;49.596;11.070;2023-03-31T00:49:41;10.60;74.10
15359;DHT22;7779;49.596;11.070;2023-03-31T00:52:21;10.60;74.00
15359;DHT22;7779;49.596;11.070;2023-03-31T00:55:09;10.60;74.50
15359;DHT22;7779;49.596;11.070;2023-03-31T00:57:40;10.60;74.70
15359;DHT22;7779;49.596;11.070;2023-03-31T01:00:10;10.60;73.90
15359;DHT22;7779;49.596;11.070;2023-03-31T01:02:46;10.60;73.80
15359;DHT22;7779;49.596;11.070;2023-03-31T01:05:26;10.60;74.20
15359;DHT22;7779;49.596;11.070;2023-03-31T01:07:55;10.50;73.90
15359;DHT22;7779;49.596;11.070;2023-03-31T01:10:23;10.50;73.70
15359;DHT22;7779;49.596;11.070;2023-03-31T01:12:53;10.50;73.80
15359;DHT22;7779;49.596;11.070;2023-03-31T01:15:20;10.50;73.90
15359;DHT22;7779;49.596;11.070;2023-03-31T01:17:47;10.50;73.70
15359;DHT22;7779;49.596;11.070;2023-03-31T01:20:41;10.50;73.80
15359;DHT22;7779;49.596;11.070;2023-03-31T01:24:05;10.50;74.20
15359;DHT22;7779;49.596;11.070;2023-03-31T01:27:31;10.50;75.00
15359;DHT22;7779;49.596;11.070;2023-03-31T01:30:26;10.50;75.10
15359;DHT22;7779;49.596;11.070;2023-03-31T01:33:50;10.40;74.70
15359;DHT22;7779;49.596;11.070;2023-03-31T01:36:55;10.40;74.70
15359;DHT22;7779;49.596;11.070;2023-03-31T01:42:56;10.40;75.00
15359;DHT22;7779;49.596;11.070;2023-03-31T01:45:29;10.40;74.30
15359;DHT22;7779;49.596;11.070;2023-03-31T01:48:13;10.40;73.80
15359;DHT22;7779;49.596;11.070;2023-03-31T01:51:15;10.40;74.40
15359;DHT22;7779;49.596;11.070;2023-03-31T01:53:55;10.40;75.20
15359;DHT22;7779;49.596;11.070;2023-03-31T01:56:35;10.40;74.40
15359;DHT22;7779;49.596;11.070;2023-03-31T01:59:16;10.40;74.00
15359;DHT22;7779;49.596;11.070;2023-03-31T02:02:00;10.40;73.60
15359;DHT22;7779;49.596;11.070;2023-03-31T02:04:38;10.30;74.90
15359;DHT22;7779;49.596;11.070;2023-03-31T02:07:16;10.30;74.00
15359;DHT22;7779;49.596;11.070;2023-03-31T02:09:52;10.30;73.70
15359;DHT22;7779;49.596;11.070;2023-03-31T02:12:25;10.30;73.90
15359;DHT22;7779;49.596;11.070;2023-03-31T02:14:54;10.30;73.80
15359;DHT22;7779;49.596;11.070;2023-03-31T02:17:25;10.20;73.70
15359;DHT22;7779;49.596;11.070;2023-03-31T02:20:00;10.20;73.80
15359;DHT22;7779;49.596;11.070;2023-03-31T02:22:32;10.20;73.80
15359;DHT22;7779;49.596;11.070;2023-03-31T02:25:03;10.20;73.80
15359;DHT22;7779;49.596;11.070;2023-03-31T02:27:35;10.20;73.90
15359;DHT22;7779;49.596;11.070;2023-03-31T02:30:05;10.10;74.00
15359;DHT22;7779;49.596;11.070;2023-03-31T02:32:39;10.10;73.90
15359;DHT22;7779;49.596;11.070;2023-03-31T02:35:11;10.20;74.10
15359;DHT22;7779;49.596;11.070;2023-03-31T02:37:40;10.10;74.20
15359;DHT22;7779;49.596;11.070;2023-03-31T02:40:12;10.10;74.20
15359;DHT22;7779;49.596;11.070;2023-03-31T02:42:42;10.10;74.50
15359;DHT22;7779;49.596;11.070;2023-03-31T02:45:38;10.10;75.80
15359;DHT22;7779;49.596;11.070;2023-03-31T02:48:11;10.10;75.50
15359;DHT22;7779;49.596;11.070;2023-03-31T02:59:42;10.20;74.80
15359;DHT22;7779;49.596;11.070;2023-03-31T03:02:34;10.20;75.30
15359;DHT22;7779;49.596;11.070;2023-03-31T03:12:01;10.20;75.90
15359;DHT22;7779;49.596;11.070;2023-03-31T03:14:44;10.30;76.20
15359;DHT22;7779;49.596;11.070;2023-03-31T03:17:27;10.20;74.90
15359;DHT22;7779;49.596;11.070;2023-03-31T03:19:59;10.30;75.30
15359;DHT22;7779;49.596;11.070;2023-03-31T03:22:32;10.30;74.90
15359;DHT22;7779;49.596;11.070;2023-03-31T03:24:57;10.30;76.20
15359;DHT22;7779;49.596;11.070;2023-03-31T03:27:23;10.30;74.90
15359;DHT22;7779;49.596;11.070;2023-03-31T03:29:49;10.30;74.90
15359;DHT22;7779;49.596;11.070;2023-03-31T03:32:14;10.30;74.90
15359;DHT22;7779;49.596;11.070;2023-03-31T03:34:40;10.30;74.90
15359;DHT22;7779;49.596;11.070;2023-03-31T03:37:06;10.30;74.90
15359;DHT22;7779;49.596;11.070;2023-03-31T03:39:32;10.40;75.00
15359;DHT22;7779;49.596;11.070;2023-03-31T03:41:57;10.40;74.90
15359;DHT22;7779;49.596;11.070;2023-03-31T03:44:23;10.40;75.70
15359;DHT22;7779;49.596;11.070;2023-03-31T03:46:49;10.40;74.70
15359;DHT22;7779;49.596;11.070;2023-03-31T03:49:15;10.40;74.70
15359;DHT22;7779;49.596;11.070;2023-03-31T03:51:40;10.40;74.70
15359;DHT22;7779;49.596;11.070;2023-03-31T03:54:06;10.40;74.30
15359;DHT22;7779;49.596;11.070;2023-03-31T03:56:32;10.40;74.80
15359;DHT22;7779;49.596;11.070;2023-03-31T03:58:58;10.40;74.80
15359;DHT22;7779;49.596;11.070;2023-03-31T04:01:24;10.40;74.80
15359;DHT22;7779;49.596;11.070;2023-03-31T04:03:49;10.40;74.80
15359;DHT22;7779;49.596;11.070;2023-03-31T04:06:15;10.40;75.50
15359;DHT22;7779;49.596;11.070;2023-03-31T04:08:41;10.50;75.00
15359;DHT22;7779;49.596;11.070;2023-03-31T04:11:17;10.50;75.00
15359;DHT22;7779;49.596;11.070;2023-03-31T04:13:43;10.50;75.60
15359;DHT22;7779;49.596;11.070;2023-03-31T04:16:09;10.50;75.60
15359;DHT22;7779;49.596;11.070;2023-03-31T04:18:36;10.50;75.00
15359;DHT22;7779;49.596;11.070;2023-03-31T04:21:08;10.50;75.00
15359;DHT22;7779;49.596;11.070;2023-03-31T04:23:37;10.50;75.00
15359;DHT22;7779;49.596;11.070;2023-03-31T04:26:14;10.50;75.60
15359;DHT22;7779;49.596;11.070;2023-03-31T04:28:43;10.50;75.00
15359;DHT22;7779;49.596;11.070;2023-03-31T04:31:15;10.50;74.90
15359;DHT22;7779;49.596;11.070;2023-03-31T04:33:58;10.50;74.90
15359;DHT22;7779;49.596;11.070;2023-03-31T04:36:27;10.50;75.00
15359;DHT22;7779;49.596;11.070;2023-03-31T04:38:56;10.50;74.90
15359;DHT22;7779;49.596;11.070;2023-03-31T04:41:23;10.50;74.90
15359;DHT22;7779;49.596;11.070;2023-03-31T04:43:51;10.50;75.00
15359;DHT22;7779;49.596;11.070;2023-03-31T04:46:18;10.50;75.00
15359;DHT22;7779;49.596;11.070;2023-03-31T04:48:44;10.50;75.00
15359;DHT22;7779;49.596;11.070;2023-03-31T04:51:09;10.50;74.90
15359;DHT22;7779;49.596;11.070;2023-03-31T04:53:35;10.50;74.90
15359;DHT22;7779;49.596;11.070;2023-03-31T04:56:01;10.50;75.50
15359;DHT22;7779;49.596;11.070;2023-03-31T04:58:28;10.50;74.90
15359;DHT22;7779;49.596;11.070;2023-03-31T05:00:53;10.50;74.90
15359;DHT22;7779;49.596;11.070;2023-03-31T05:03:19;10.50;74.90
15359;DHT22;7779;49.596;11.070;2023-03-31T05:05:46;10.50;75.80
15359;DHT22;7779;49.596;11.070;2023-03-31T05:08:11;10.60;75.10
15359;DHT22;7779;49.596;11.070;2023-03-31T05:10:37;10.60;75.10
15359;DHT22;7779;49.596;11.070;2023-03-31T05:13:03;10.60;75.00
15359;DHT22;7779;49.596;11.070;2023-03-31T05:15:28;10.60;76.00
15359;DHT22;7779;49.596;11.070;2023-03-31T05:17:54;10.60;75.10
15359;DHT22;7779;49.596;11.070;2023-03-31T05:20:22;10.60;75.10
15359;DHT22;7779;49.596;11.070;2023-03-31T05:22:48;10.60;75.20
15359;DHT22;7779;49.596;11.070;2023-03-31T05:25:15;10.60;76.30
15359;DHT22;7779;49.596;11.070;2023-03-31T05:27:44;10.60;75.20
15359;DHT22;7779;49.596;11.070;2023-03-31T05:30:12;10.60;75.20
15359;DHT22;7779;49.596;11.070;2023-03-31T05:32:39;10.60;75.20
15359;DHT22;7779;49.596;11.070;2023-03-31T05:35:05;10.60;75.20
15359;DHT22;7779;49.596;11.070;2023-03-31T05:37:32;10.60;75.30
15359;DHT22;7779;49.596;11.070;2023-03-31T05:39:57;10.60;75.30
15359;DHT22;7779;49.596;11.070;2023-03-31T05:42:23;10.60;75.30
15359;DHT22;7779;49.596;11.070;2023-03-31T05:44:49;10.60;76.30
15359;DHT22;7779;49.596;11.070;2023-03-31T05:47:15;10.70;75.40
15359;DHT22;7779;49.596;11.070;2023-03-31T05:49:41;10.70;75.50
15359;DHT22;7779;49.596;11.070;2023-03-31T05:52:08;10.70;75.50
15359;DHT22;7779;49.596;11.070;2023-03-31T05:54:34;10.70;75.50
15359;DHT22;7779;49.596;11.070;2023-03-31T05:57:00;10.70;75.60
15359;DHT22;7779;49.596;11.070;2023-03-31T05:59:26;10.70;75.60
15359;DHT22;7779;49.596;11.070;2023-03-31T06:01:52;10.80;75.70
15359;DHT22;7779;49.596;11.070;2023-03-31T06:04:18;10.80;75.60
15359;DHT22;7779;49.596;11.070;2023-03-31T06:06:43;10.80;75.50
15359;DHT22;7779;49.596;11.070;2023-03-31T06:09:10;10.80;75.50
15359;DHT22;7779;49.596;11.070;2023-03-31T06:11:37;10.80;75.40
15359;DHT22;7779;49.596;11.070;2023-03-31T06:14:03;10.80;75.30
15359;DHT22;7779;49.596;11.070;2023-03-31T06:16:29;10.80;75.30
15359;DHT22;7779;49.596;11.070;2023-03-31T06:18:56;10.90;75.40
15359;DHT22;7779;49.596;11.070;2023-03-31T06:21:21;10.90;75.40
15359;DHT22;7779;49.596;11.070;2023-03-31T06:23:47;10.90;75.30
15359;DHT22;7779;49.596;11.070;2023-03-31T06:26:16;10.90;75.30
15359;DHT22;7779;49.596;11.070;2023-03-31T06:28:43;10.90;75.40
15359;DHT22;7779;49.596;11.070;2023-03-31T06:31:12;10.90;75.30
15359;DHT22;7779;49.596;11.070;2023-03-31T06:33:40;10.90;75.40
15359;DHT22;7779;49.596;11.070;2023-03-31T06:36:09;10.90;75.40
15359;DHT22;7779;49.596;11.070;2023-03-31T06:38:36;10.90;75.40
15359;DHT22;7779;49.596;11.070;2023-03-31T06:41:03;11.00;75.50
15359;DHT22;7779;49.596;11.070;2023-03-31T06:43:30;11.00;75.50
15359;DHT22;7779;49.596;11.070;2023-03-31T06:45:57;11.00;75.50
15359;DHT22;7779;49.596;11.070;2023-03-31T06:48:23;11.00;75.60
15359;DHT22;7779;49.596;11.070;2023-03-31T06:50:50;11.00;75.50
15359;DHT22;7779;49.596;11.070;2023-03-31T06:53:17;11.00;75.50
15359;DHT22;7779;49.596;11.070;2023-03-31T06:55:42;11.00;75.50
15359;DHT22;7779;49.596;11.070;2023-03-31T06:58:09;11.00;75.50
15359;DHT22;7779;49.596;11.070;2023-03-31T07:00:36;11.00;75.40
15359;DHT22;7779;49.596;11.070;2023-03-31T07:03:03;11.00;75.50
15359;DHT22;7779;49.596;11.070;2023-03-31T07:05:29;11.10;75.60
15359;DHT22;7779;49.596;11.070;2023-03-31T07:07:57;11.10;75.60
15359;DHT22;7779;49.596;11.070;2023-03-31T07:10:25;11.00;75.60
15359;DHT22;7779;49.596;11.070;2023-03-31T07:12:53;11.10;75.70
15359;DHT22;7779;49.596;11.070;2023-03-31T07:15:18;11.10;75.60
15359;DHT22;7779;49.596;11.070;2023-03-31T07:17:45;11.10;75.60
15359;DHT22;7779;49.596;11.070;2023-03-31T07:20:12;11.10;75.60
15359;DHT22;7779;49.596;11.070;2023-03-31T07:22:40;11.10;75.70
15359;DHT22;7779;49.596;11.070;2023-03-31T07:25:07;11.10;76.20
15359;DHT22;7779;49.596;11.070;2023-03-31T07:27:34;11.10;75.60
15359;DHT22;7779;49.596;11.070;2023-03-31T07:30:01;11.10;75.60
15359;DHT22;7779;49.596;11.070;2023-03-31T07:32:28;11.10;75.70
15359;DHT22;7779;49.596;11.070;2023-03-31T07:34:54;11.10;76.60
15359;DHT22;7779;49.596;11.070;2023-03-31T07:37:19;11.10;76.00
15359;DHT22;7779;49.596;11.070;2023-03-31T07:39:45;11.10;76.10
15359;DHT22;7779;49.596;11.070;2023-03-31T07:42:11;11.20;76.20
15359;DHT22;7779;49.596;11.070;2023-03-31T07:44:37;11.20;77.00
15359;DHT22;7779;49.596;11.070;2023-03-31T07:47:03;11.20;76.30
15359;DHT22;7779;49.596;11.070;2023-03-31T07:49:32;11.30;76.30
15359;DHT22;7779;49.596;11.070;2023-03-31T07:51:58;11.30;76.30
15359;DHT22;7779;49.596;11.070;2023-03-31T07:54:25;11.30;76.30
15359;DHT22;7779;49.596;11.070;2023-03-31T07:56:51;11.40;76.30
15359;DHT22;7779;49.596;11.070;2023-03-31T07:59:17;11.40;76.30
15359;DHT22;7779;49.596;11.070;2023-03-31T08:01:43;11.40;76.30
15359;DHT22;7779;49.596;11.070;2023-03-31T08:04:10;11.50;75.90
15359;DHT22;7779;49.596;11.070;2023-03-31T08:06:36;11.50;76.40
15359;DHT22;7779;49.596;11.070;2023-03-31T08:09:03;11.50;76.30
15359;DHT22;7779;49.596;11.070;2023-03-31T08:11:31;11.50;76.30
15359;DHT22;7779;49.596;11.070;2023-03-31T08:13:57;11.50;76.20
15359;DHT22;7779;49.596;11.070;2023-03-31T08:16:23;11.50;75.90
15359;DHT22;7779;49.596;11.070;2023-03-31T08:18:48;11.50;76.00
15359;DHT22;7779;49.596;11.070;2023-03-31T08:21:14;11.50;76.00
15359;DHT22;7779;49.596;11.070;2023-03-31T08:23:40;11.50;76.00
15359;DHT22;7779;49.596;11.070;2023-03-31T08:26:17;11.50;76.00
15359;DHT22;7779;49.596;11.070;2023-03-31T08:28:43;11.50;76.30
15359;DHT22;7779;49.596;11.070;2023-03-31T08:31:09;11.50;76.00
15359;DHT22;7779;49.596;11.070;2023-03-31T08:33:35;11.50;76.00
15359;DHT22;7779;49.596;11.070;2023-03-31T08:36:07;11.50;76.00
15359;DHT22;7779;49.596;11.070;2023-03-31T08:38:38;11.50;76.30
15359;DHT22;7779;49.596;11.070;2023-03-31T08:44:12;11.50;76.70
15359;DHT22;7779;49.596;11.070;2023-03-31T08:46:45;11.50;76.30
15359;DHT22;7779;49.596;11.070;2023-03-31T08:49:15;11.60;76.30
15359;DHT22;7779;49.596;11.070;2023-03-31T08:51:51;11.60;76.60
15359;DHT22;7779;49.596;11.070;2023-03-31T08:54:32;11.60;76.80
15359;DHT22;7779;49.596;11.070;2023-03-31T08:57:03;11.60;77.10
15359;DHT22;7779;49.596;11.070;2023-03-31T08:59:35;11.70;77.10
15359;DHT22;7779;49.596;11.070;2023-03-31T09:02:33;11.70;77.50
15359;DHT22;7779;49.596;11.070;2023-03-31T09:08:49;11.90;78.90
15359;DHT22;7779;49.596;11.070;2023-03-31T09:11:29;12.00;79.50
15359;DHT22;7779;49.596;11.070;2023-03-31T09:14:11;12.30;78.30
15359;DHT22;7779;49.596;11.070;2023-03-31T09:19:59;12.40;78.70
15359;DHT22;7779;49.596;11.070;2023-03-31T09:22:38;12.50;79.20
15359;DHT22;7779;49.596;11.070;2023-03-31T09:25:15;12.60;78.60
15359;DHT22;7779;49.596;11.070;2023-03-31T09:27:47;12.70;78.70
15359;DHT22;7779;49.596;11.070;2023-03-31T09:30:29;12.80;78.70
15359;DHT22;7779;49.596;11.070;2023-03-31T09:33:10;12.90;78.70
15359;DHT22;7779;49.596;11.070;2023-03-31T09:35:39;13.00;78.50
15359;DHT22;7779;49.596;11.070;2023-03-31T09:38:05;13.10;78.00
15359;DHT22;7779;49.596;11.070;2023-03-31T09:40:31;13.10;78.00
15359;DHT22;7779;49.596;11.070;2023-03-31T09:43:03;13.20;78.00
15359;DHT22;7779;49.596;11.070;2023-03-31T09:45:32;13.30;78.10
15359;DHT22;7779;49.596;11.070;2023-03-31T09:48:02;13.40;78.10
15359;DHT22;7779;49.596;11.070;2023-03-31T09:50:35;13.50;77.90
15359;DHT22;7779;49.596;11.070;2023-03-31T09:53:17;13.60;77.80
15359;DHT22;7779;49.596;11.070;2023-03-31T09:55:52;13.60;77.80
15359;DHT22;7779;49.596;11.070;2023-03-31T09:58:21;13.70;77.70
15359;DHT22;7779;49.596;11.070;2023-03-31T10:01:00;13.80;77.70
15359;DHT22;7779;49.596;11.070;2023-03-31T10:03:29;13.90;77.60
15359;DHT22;7779;49.596;11.070;2023-03-31T10:06:01;14.00;78.10
15359;DHT22;7779;49.596;11.070;2023-03-31T10:08:41;14.10;78.70
15359;DHT22;7779;49.596;11.070;2023-03-31T10:11:13;14.30;78.90
15359;DHT22;7779;49.596;11.070;2023-03-31T10:13:46;14.40;78.60
15359;DHT22;7779;49.596;11.070;2023-03-31T10:16:22;14.50;78.40
15359;DHT22;7779;49.596;11.070;2023-03-31T10:22:04;14.80;77.00
15359;DHT22;7779;49.596;11.070;2023-03-31T10:24:43;14.90;77.20
15359;DHT22;7779;49.596;11.070;2023-03-31T10:27:23;15.00;77.10
15359;DHT22;7779;49.596;11.070;2023-03-31T10:29:56;15.10;76.80
15359;DHT22;7779;49.596;11.070;2023-03-31T10:34:56;15.20;76.70
15359;DHT22;7779;49.596;11.070;2023-03-31T10:37:25;15.30;76.50
15359;DHT22;7779;49.596;11.070;2023-03-31T10:39:58;15.40;76.00
15359;DHT22;7779;49.596;11.070;2023-03-31T10:42:26;15.40;75.50
15359;DHT22;7779;49.596;11.070;2023-03-31T10:45:24;15.40;75.50
15359;DHT22;7779;49.596;11.070;2023-03-31T10:47:57;15.50;75.00
15359;DHT22;7779;49.596;11.070;2023-03-31T10:50:33;15.60;75.70
15359;DHT22;7779;49.596;11.070;2023-03-31T10:53:05;15.60;75.30
15359;DHT22;7779;49.596;11.070;2023-03-31T10:59:02;15.80;74.20
15359;DHT22;7779;49.596;11.070;2023-03-31T11:08:05;16.00;72.40
15359;DHT22;7779;49.596;11.070;2023-03-31T11:11:14;16.10;72.50
15359;DHT22;7779;49.596;11.070;2023-03-31T11:14:23;16.10;72.70
15359;DHT22;7779;49.596;11.070;2023-03-31T11:22:58;16.40;71.00
15359;DHT22;7779;49.596;11.070;2023-03-31T11:25:57;16.40;69.70
15359;DHT22;7779;49.596;11.070;2023-03-31T11:28:57;16.20;69.20
15359;DHT22;7779;49.596;11.070;2023-03-31T11:31:47;16.00;68.30
15359;DHT22;7779;49.596;11.070;2023-03-31T11:40:05;15.30;68.20
15359;DHT22;7779;49.596;11.070;2023-03-31T11:45:39;14.90;69.30
15359;DHT22;7779;49.596;11.070;2023-03-31T11:51:24;14.70;69.80
15359;DHT22;7779;49.596;11.070;2023-03-31T11:53:55;14.50;70.20
15359;DHT22;7779;49.596;11.070;2023-03-31T11:56:34;14.50;70.30
15359;DHT22;7779;49.596;11.070;2023-03-31T11:59:03;14.40;69.20
15359;DHT22;7779;49.596;11.070;2023-03-31T12:02:15;14.30;69.80
15359;DHT22;7779;49.596;11.070;2023-03-31T12:05:02;14.20;69.10
15359;DHT22;7779;49.596;11.070;2023-03-31T12:07:37;14.10;69.30
15359;DHT22;7779;49.596;11.070;2023-03-31T12:10:35;14.00;68.90
15359;DHT22;7779;49.596;11.070;2023-03-31T12:13:43;13.90;69.00
15359;DHT22;7779;49.596;11.070;2023-03-31T12:16:31;13.70;68.90
15359;DHT22;7779;49.596;11.070;2023-03-31T12:19:24;13.60;69.50
15359;DHT22;7779;49.596;11.070;2023-03-31T12:22:04;13.60;69.80
15359;DHT22;7779;49.596;11.070;2023-03-31T12:24:37;13.50;69.90
15359;DHT22;7779;49.596;11.070;2023-03-31T12:29:38;13.40;70.40
15359;DHT22;7779;49.596;11.070;2023-03-31T12:32:19;13.40;70.40
15359;DHT22;7779;49.596;11.070;2023-03-31T12:52:31;13.30;70.30
15359;DHT22;7779;49.596;11.070;2023-03-31T12:55:20;13.20;70.90
15359;DHT22;7779;49.596;11.070;2023-03-31T13:01:17;13.40;71.40
15359;DHT22;7779;49.596;11.070;2023-03-31T13:11:40;13.60;70.50
15359;DHT22;7779;49.596;11.070;2023-03-31T13:14:34;13.50;69.70
15359;DHT22;7779;49.596;11.070;2023-03-31T13:17:23;13.40;69.20
15359;DHT22;7779;49.596;11.070;2023-03-31T13:19:54;13.30;69.10
15359;DHT22;7779;49.596;11.070;2023-03-31T13:22:42;13.10;69.40
15359;DHT22;7779;49.596;11.070;2023-03-31T13:27:56;12.90;69.50
15359;DHT22;7779;49.596;11.070;2023-03-31T13:33:06;12.60;69.60
15359;DHT22;7779;49.596;11.070;2023-03-31T13:35:59;12.50;69.70
15359;DHT22;7779;49.596;11.070;2023-03-31T13:38:46;12.50;70.40
15359;DHT22;7779;49.596;11.070;2023-03-31T13:42:05;12.50;71.20
15359;DHT22;7779;49.596;11.070;2023-03-31T13:44:36;12.40;71.90
15359;DHT22;7779;49.596;11.070;2023-03-31T13:53:31;12.70;73.90
15359;DHT22;7779;49.596;11.070;2023-03-31T13:56:33;12.90;74.00
15359;DHT22;7779;49.596;11.070;2023-03-31T14:02:52;13.20;73.30
15359;DHT22;7779;49.596;11.070;2023-03-31T14:05:39;13.40;73.20
15359;DHT22;7779;49.596;11.070;2023-03-31T14:08:16;13.60;73.10
15359;DHT22;7779;49.596;11.070;2023-03-31T14:10:49;13.70;73.20
15359;DHT22;7779;49.596;11.070;2023-03-31T14:13:18;13.80;73.30
15359;DHT22;7779;49.596;11.070;2023-03-31T14:15:51;13.90;73.40
15359;DHT22;7779;49.596;11.070;2023-03-31T14:18:28;14.00;73.00
15359;DHT22;7779;49.596;11.070;2023-03-31T14:21:23;14.20;72.50
15359;DHT22;7779;49.596;11.070;2023-03-31T14:24:20;14.30;72.10
15359;DHT22;7779;49.596;11.070;2023-03-31T14:30:33;14.50;71.60
15359;DHT22;7779;49.596;11.070;2023-03-31T14:36:23;14.60;71.00
15359;DHT22;7779;49.596;11.070;2023-03-31T14:39:24;14.70;71.30
15359;DHT22;7779;49.596;11.070;2023-03-31T14:42:00;14.70;70.90
15359;DHT22;7779;49.596;11.070;2023-03-31T14:44:28;14.70;70.50
15359;DHT22;7779;49.596;11.070;2023-03-31T14:46:57;14.70;70.40
15359;DHT22;7779;49.596;11.070;2023-03-31T14:49:25;14.70;69.50
15359;DHT22;7779;49.596;11.070;2023-03-31T14:52:16;14.70;69.60
15359;DHT22;7779;49.596;11.070;2023-03-31T14:54:44;14.70;68.70
15359;DHT22;7779;49.596;11.070;2023-03-31T14:57:16;14.70;69.20
15359;DHT22;7779;49.596;11.070;2023-03-31T14:59:46;14.70;68.70
15359;DHT22;7779;49.596;11.070;2023-03-31T15:02:36;14.80;68.50
15359;DHT22;7779;49.596;11.070;2023-03-31T15:05:14;14.80;67.00
15359;DHT22;7779;49.596;11.070;2023-03-31T15:07:49;14.80;68.00
15359;DHT22;7779;49.596;11.070;2023-03-31T15:10:20;14.80;68.30
15359;DHT22;7779;49.596;11.070;2023-03-31T15:12:47;14.80;67.80
15359;DHT22;7779;49.596;11.070;2023-03-31T15:15:14;14.80;68.30
15359;DHT22;7779;49.596;11.070;2023-03-31T15:17:45;14.90;68.40
15359;DHT22;7779;49.596;11.070;2023-03-31T15:23:02;15.00;66.40
15359;DHT22;7779;49.596;11.070;2023-03-31T15:25:42;15.00;68.10
15359;DHT22;7779;49.596;11.070;2023-03-31T15:28:12;15.10;67.70
15359;DHT22;7779;49.596;11.070;2023-03-31T15:30:41;15.10;66.90
15359;DHT22;7779;49.596;11.070;2023-03-31T15:33:18;15.10;66.90
15359;DHT22;7779;49.596;11.070;2023-03-31T15:35:48;15.10;65.90
15359;DHT22;7779;49.596;11.070;2023-03-31T15:38:14;15.10;67.20
15359;DHT22;7779;49.596;11.070;2023-03-31T15:40:43;15.10;66.50
15359;DHT22;7779;49.596;11.070;2023-03-31T15:43:16;15.10;66.50
15359;DHT22;7779;49.596;11.070;2023-03-31T15:45:55;15.10;64.80
15359;DHT22;7779;49.596;11.070;2023-03-31T15:48:38;15.10;66.10
15359;DHT22;7779;49.596;11.070;2023-03-31T15:51:18;15.10;64.80
15359;DHT22;7779;49.596;11.070;2023-03-31T15:53:57;15.10;66.10
15359;DHT22;7779;49.596;11.070;2023-03-31T15:59:23;15.10;65.40
15359;DHT22;7779;49.596;11.070;2023-03-31T16:01:51;15.10;64.50
15359;DHT22;7779;49.596;11.070;2023-03-31T16:04:17;15.10;65.80
15359;DHT22;7779;49.596;11.070;2023-03-31T16:11:53;15.10;64.80
15359;DHT22;7779;49.596;11.070;2023-03-31T16:14:30;15.10;64.80
15359;DHT22;7779;49.596;11.070;2023-03-31T16:17:05;15.10;64.70
15359;DHT22;7779;49.596;11.070;2023-03-31T16:19:45;15.10;64.60
15359;DHT22;7779;49.596;11.070;2023-03-31T16:22:22;15.10;64.10
15359;DHT22;7779;49.596;11.070;2023-03-31T16:24:51;15.10;64.00
15359;DHT22;7779;49.596;11.070;2023-03-31T16:27:17;15.10;64.50
15359;DHT22;7779;49.596;11.070;2023-03-31T16:29:43;15.00;64.20
15359;DHT22;7779;49.596;11.070;2023-03-31T16:32:15;15.00;64.10
15359;DHT22;7779;49.596;11.070;2023-03-31T16:34:56;14.90;63.90
15359;DHT22;7779;49.596;11.070;2023-03-31T16:37:26;14.90;63.40
15359;DHT22;7779;49.596;11.070;2023-03-31T16:39:52;14.80;63.80
15359;DHT22;7779;49.596;11.070;2023-03-31T16:42:18;14.80;64.00
15359;DHT22;7779;49.596;11.070;2023-03-31T16:44:45;14.80;64.00
15359;DHT22;7779;49.596;11.070;2023-03-31T16:47:13;14.80;64.00
15359;DHT22;7779;49.596;11.070;2023-03-31T16:49:40;14.70;63.80
15359;DHT22;7779;49.596;11.070;2023-03-31T16:52:06;14.70;63.90
15359;DHT22;7779;49.596;11.070;2023-03-31T16:54:33;14.70;63.90
15359;DHT22;7779;49.596;11.070;2023-03-31T16:56:59;14.60;63.70
15359;DHT22;7779;49.596;11.070;2023-03-31T16:59:25;14.60;63.70
15359;DHT22;7779;49.596;11.070;2023-03-31T17:01:51;14.60;63.60
15359;DHT22;7779;49.596;11.070;2023-03-31T17:04:17;14.50;63.40
15359;DHT22;7779;49.596;11.070;2023-03-31T17:06:44;14.50;63.40
15359;DHT22;7779;49.596;11.070;2023-03-31T17:09:10;14.40;63.30
15359;DHT22;7779;49.596;11.070;2023-03-31T17:11:35;14.40;63.20
15359;DHT22;7779;49.596;11.070;2023-03-31T17:14:01;14.30;63.30
15359;DHT22;7779;49.596;11.070;2023-03-31T17:16:29;14.20;63.20
15359;DHT22;7779;49.596;11.070;2023-03-31T17:18:56;14.20;63.20
15359;DHT22;7779;49.596;11.070;2023-03-31T17:21:22;14.20;63.30
15359;DHT22;7779;49.596;11.070;2023-03-31T17:23:49;14.10;63.30
15359;DHT22;7779;49.596;11.070;2023-03-31T17:26:15;14.00;62.20
15359;DHT22;7779;49.596;11.070;2023-03-31T17:28:42;14.00;63.40
15359;DHT22;7779;49.596;11.070;2023-03-31T17:31:13;13.90;63.40
15359;DHT22;7779;49.596;11.070;2023-03-31T17:33:43;13.90;63.40
15359;DHT22;7779;49.596;11.070;2023-03-31T17:36:10;13.80;62.40
15359;DHT22;7779;49.596;11.070;2023-03-31T17:38:36;13.80;63.70
15359;DHT22;7779;49.596;11.070;2023-03-31T17:41:05;13.70;63.60
15359;DHT22;7779;49.596;11.070;2023-03-31T17:43:33;13.70;63.70
15359;DHT22;7779;49.596;11.070;2023-03-31T17:46:09;13.60;63.60
15359;DHT22;7779;49.596;11.070;2023-03-31T17:48:35;13.60;63.60
15359;DHT22;7779;49.596;11.070;2023-03-31T17:51:14;13.50;63.80
15359;DHT22;7779;49.596;11.070;2023-03-31T17:53:42;13.50;63.90
15359;DHT22;7779;49.596;11.070;2023-03-31T17:56:09;13.40;62.90
15359;DHT22;7779;49.596;11.070;2023-03-31T17:58:36;13.40;64.40
15359;DHT22;7779;49.596;11.070;2023-03-31T18:01:06;13.30;63.80
15359;DHT22;7779;49.596;11.070;2023-03-31T18:03:34;13.30;63.80
15359;DHT22;7779;49.596;11.070;2023-03-31T18:06:05;13.20;63.00
15359;DHT22;7779;49.596;11.070;2023-03-31T18:08:33;13.20;64.60
15359;DHT22;7779;49.596;11.070;2023-03-31T18:11:00;13.10;64.00
15359;DHT22;7779;49.596;11.070;2023-03-31T18:13:27;13.00;64.00